createdAt,value
2022-12-27T00:01:38.669Z,0.52
2022-12-27T00:04:06.663Z,0.48
2022-12-27T00:06:34.676Z,0.47
2022-12-27T00:09:03.987Z,0.49
2022-12-27T00:11:32.059Z,0.47
2022-12-27T00:14:00.923Z,0.46
2022-12-27T00:16:28.883Z,0.46
2022-12-27T00:18:58.241Z,0.45
2022-12-27T00:21:26.760Z,0.44
2022-12-27T00:23:57.663Z,0.43
2022-12-27T00:26:29.546Z,0.35
2022-12-27T00:28:58.037Z,0.48
2022-12-27T00:31:27.621Z,0.47
2022-12-27T00:33:59.233Z,0.53
2022-12-27T00:36:29.499Z,0.57
2022-12-27T00:38:58.904Z,0.51
2022-12-27T00:41:27.318Z,0.56
2022-12-27T00:43:56.439Z,0.53
2022-12-27T00:46:24.448Z,0.58
2022-12-27T00:48:52.804Z,0.54
2022-12-27T00:51:24.619Z,0.56
2022-12-27T00:53:53.992Z,0.54
2022-12-27T00:56:25.081Z,0.53
2022-12-27T00:58:54.877Z,0.54
2022-12-27T01:01:25.826Z,0.54
2022-12-27T01:03:54.540Z,0.60
2022-12-27T01:06:25.938Z,0.54
2022-12-27T01:08:53.850Z,0.57
2022-12-27T01:11:21.716Z,0.56
2022-12-27T01:13:49.999Z,0.53
2022-12-27T01:16:19.526Z,0.55
2022-12-27T01:18:48.254Z,0.40
2022-12-27T01:21:18.233Z,0.59
2022-12-27T01:23:47.696Z,0.61
2022-12-27T01:26:17.585Z,0.57
2022-12-27T01:28:45.903Z,0.57
2022-12-27T01:31:15.877Z,0.55
2022-12-27T01:33:44.075Z,0.62
2022-12-27T01:36:13.456Z,0.54
2022-12-27T01:38:42.836Z,0.54
2022-12-27T01:41:35.457Z,0.58
2022-12-27T01:44:23.281Z,0.55
2022-12-27T01:46:51.408Z,0.56
2022-12-27T01:49:19.307Z,0.57
2022-12-27T01:51:47.197Z,0.52
2022-12-27T01:54:15.032Z,0.58
2022-12-27T01:56:45.497Z,0.54
2022-12-27T01:59:15.955Z,0.51
2022-12-27T02:01:47.780Z,0.62
2022-12-27T02:04:17.995Z,0.56
2022-12-27T02:06:47.633Z,0.65
2022-12-27T02:09:22.016Z,0.65
2022-12-27T02:11:56.920Z,0.65
2022-12-27T02:14:30.489Z,0.69
2022-12-27T02:17:00.457Z,0.65
2022-12-27T02:19:39.527Z,0.72
2022-12-27T02:23:08.118Z,0.68
2022-12-27T02:25:53.936Z,0.79
2022-12-27T02:28:38.279Z,0.74
2022-12-27T02:31:11.751Z,0.75
2022-12-27T02:33:46.909Z,0.81
2022-12-27T02:36:21.624Z,0.84
2022-12-27T02:38:54.527Z,0.88
2022-12-27T02:41:40.147Z,0.83
2022-12-27T02:44:25.615Z,0.77
2022-12-27T02:47:17.653Z,0.83
2022-12-27T02:50:03.166Z,0.78
2022-12-27T02:52:58.549Z,0.79
2022-12-27T02:55:33.711Z,0.82
2022-12-27T02:58:15.982Z,0.87
2022-12-27T03:01:07.276Z,0.88
2022-12-27T03:03:55.680Z,0.87
2022-12-27T03:06:43.841Z,0.88
2022-12-27T03:10:04.447Z,0.89
2022-12-27T03:13:04.583Z,0.89
2022-12-27T03:15:57.801Z,0.87
2022-12-27T03:18:51.438Z,0.89
2022-12-27T03:21:40.649Z,0.92
2022-12-27T03:24:35.826Z,0.90
2022-12-27T03:27:09.059Z,0.93
2022-12-27T03:29:54.556Z,0.96
2022-12-27T03:32:41.400Z,0.95
2022-12-27T03:35:16.582Z,0.95
2022-12-27T03:38:05.500Z,0.99
2022-12-27T03:41:07.998Z,1.02
2022-12-27T03:43:37.880Z,1.02
2022-12-27T03:46:33.901Z,1.03
2022-12-27T03:49:16.685Z,1.09
2022-12-27T03:51:49.726Z,1.09
2022-12-27T03:54:26.299Z,1.12
2022-12-27T03:56:57.015Z,1.15
2022-12-27T03:59:25.645Z,1.18
2022-12-27T04:01:53.621Z,1.20
2022-12-27T04:04:21.516Z,1.22
2022-12-27T04:06:50.619Z,1.20
2022-12-27T04:09:36.199Z,1.22
2022-12-27T04:12:21.669Z,1.28
2022-12-27T04:15:07.085Z,1.28
2022-12-27T04:17:52.513Z,1.31
2022-12-27T04:20:38.091Z,1.30
2022-12-27T04:23:25.247Z,1.30
2022-12-27T04:26:10.875Z,1.31
2022-12-27T04:28:56.617Z,1.31
2022-12-27T04:31:42.070Z,1.32
2022-12-27T04:34:27.852Z,1.30
2022-12-27T04:36:55.908Z,1.35
2022-12-27T04:39:25.010Z,1.36
2022-12-27T04:42:10.425Z,1.35
2022-12-27T04:44:58.233Z,1.30
2022-12-27T04:47:44.281Z,1.40
2022-12-27T04:50:46.803Z,1.43
2022-12-27T04:53:35.059Z,1.40
2022-12-27T04:56:05.329Z,1.47
2022-12-27T04:58:33.152Z,1.49
2022-12-27T05:01:21.160Z,1.53
2022-12-27T05:03:51.893Z,1.52
2022-12-27T05:06:20.213Z,1.54
2022-12-27T05:09:06.190Z,1.53
2022-12-27T05:11:52.630Z,1.49
2022-12-27T05:14:20.424Z,1.47
2022-12-27T05:16:48.239Z,1.53
2022-12-27T05:19:16.122Z,1.58
2022-12-27T05:22:06.751Z,1.58
2022-12-27T05:24:52.096Z,1.63
2022-12-27T05:27:21.241Z,1.63
2022-12-27T05:29:48.988Z,1.70
2022-12-27T05:32:16.765Z,1.71
2022-12-27T05:34:44.543Z,1.73
2022-12-27T05:37:12.383Z,1.73
2022-12-27T05:39:40.285Z,1.76
2022-12-27T05:42:08.030Z,1.80
2022-12-27T05:44:37.123Z,1.85
2022-12-27T05:47:05.037Z,1.84
2022-12-27T05:49:32.811Z,1.86
2022-12-27T05:52:00.576Z,1.85
2022-12-27T05:54:28.375Z,1.85
2022-12-27T05:56:56.185Z,1.86
2022-12-27T05:59:24.045Z,1.89
2022-12-27T06:01:53.939Z,1.90
2022-12-27T06:04:21.862Z,1.86
2022-12-27T06:06:49.659Z,1.92
2022-12-27T06:09:17.554Z,1.89
2022-12-27T06:11:45.469Z,1.95
2022-12-27T06:14:13.445Z,1.94
2022-12-27T06:16:41.275Z,1.97
2022-12-27T06:19:10.423Z,1.98
2022-12-27T06:21:38.319Z,1.97
2022-12-27T06:24:06.910Z,2.02
2022-12-27T06:26:34.717Z,2.02
2022-12-27T06:29:02.603Z,2.03
2022-12-27T06:31:30.551Z,2.01
2022-12-27T06:33:58.549Z,2.02
2022-12-27T06:36:29.584Z,2.03
2022-12-27T06:38:57.697Z,2.06
2022-12-27T06:41:25.691Z,2.08
2022-12-27T06:43:56.423Z,2.07
2022-12-27T06:46:25.409Z,2.10
2022-12-27T06:48:53.656Z,2.08
2022-12-27T06:51:22.348Z,2.09
2022-12-27T06:53:51.816Z,2.07
2022-12-27T06:56:21.269Z,2.11
2022-12-27T06:58:50.509Z,2.08
2022-12-27T07:01:20.710Z,2.08
2022-12-27T07:03:50.834Z,2.09
2022-12-27T07:06:19.409Z,2.06
2022-12-27T07:08:47.258Z,2.14
2022-12-27T07:11:17.396Z,2.12
2022-12-27T07:13:46.776Z,2.03
2022-12-27T07:16:16.882Z,2.17
2022-12-27T07:18:44.972Z,2.22
2022-12-27T07:21:15.091Z,2.22
2022-12-27T07:23:43.476Z,2.24
2022-12-27T07:26:13.051Z,2.25
2022-12-27T07:28:42.749Z,2.27
2022-12-27T07:31:12.606Z,2.29
2022-12-27T07:33:40.936Z,2.27
2022-12-27T07:36:12.555Z,2.25
2022-12-27T07:38:40.582Z,2.31
2022-12-27T07:41:08.450Z,2.28
2022-12-27T07:43:37.098Z,2.28
2022-12-27T07:46:08.773Z,2.31
2022-12-27T07:48:36.618Z,2.31
2022-12-27T07:51:04.675Z,2.24
2022-12-27T07:53:33.115Z,2.33
2022-12-27T07:56:01.048Z,2.35
2022-12-27T07:58:28.847Z,2.37
2022-12-27T08:00:57.531Z,2.41
2022-12-27T08:03:26.824Z,2.43
2022-12-27T08:05:54.654Z,2.36
2022-12-27T08:08:26.593Z,2.37
2022-12-27T08:10:55.057Z,2.40
2022-12-27T08:13:22.798Z,2.42
2022-12-27T08:15:53.815Z,2.34
2022-12-27T08:18:21.875Z,2.42
2022-12-27T08:20:51.433Z,2.39
2022-12-27T08:23:19.493Z,2.43
2022-12-27T08:25:48.917Z,2.47
2022-12-27T08:28:18.586Z,2.47
2022-12-27T08:30:47.051Z,2.53
2022-12-27T08:33:16.284Z,2.47
2022-12-27T08:35:54.550Z,2.53
2022-12-27T08:38:24.463Z,2.51
2022-12-27T08:40:52.194Z,2.48
2022-12-27T08:43:20.051Z,2.50
2022-12-27T08:45:48.201Z,2.44
2022-12-27T08:48:16.534Z,2.46
2022-12-27T08:50:44.510Z,2.48
2022-12-27T08:53:12.479Z,2.53
2022-12-27T08:55:41.615Z,2.50
2022-12-27T08:58:16.038Z,2.55
2022-12-27T09:00:44.329Z,2.58
2022-12-27T09:03:12.523Z,2.62
2022-12-27T09:05:42.213Z,2.62
2022-12-27T09:08:10.567Z,2.60
2022-12-27T09:10:39.204Z,2.64
2022-12-27T09:13:08.690Z,2.45
2022-12-27T09:15:36.568Z,2.63
2022-12-27T09:18:08.063Z,2.67
2022-12-27T09:20:36.021Z,2.65
2022-12-27T09:23:03.936Z,2.67
2022-12-27T09:25:31.808Z,2.69
2022-12-27T09:27:59.794Z,2.67
2022-12-27T09:30:29.924Z,2.71
2022-12-27T09:32:59.154Z,2.69
2022-12-27T09:35:26.998Z,2.71
2022-12-27T09:37:54.968Z,2.74
2022-12-27T09:40:22.901Z,2.70
2022-12-27T09:43:12.857Z,2.71
2022-12-27T09:45:52.566Z,2.71
2022-12-27T09:48:32.759Z,2.66
2022-12-27T09:51:05.150Z,2.67
2022-12-27T09:53:44.431Z,2.66
2022-12-27T09:56:14.251Z,2.65
2022-12-27T09:58:48.112Z,2.57
2022-12-27T10:01:23.886Z,2.64
2022-12-27T10:03:55.189Z,2.64
2022-12-27T10:06:51.705Z,2.69
2022-12-27T10:09:36.994Z,2.64
2022-12-27T10:12:19.185Z,2.62
2022-12-27T10:15:00.608Z,2.61
2022-12-27T10:17:52.715Z,2.58
2022-12-27T10:20:31.960Z,2.59
2022-12-27T10:23:06.465Z,2.61
2022-12-27T10:25:37.076Z,2.58
2022-12-27T10:28:17.254Z,2.54
2022-12-27T10:30:47.099Z,2.57
2022-12-27T10:33:22.929Z,2.58
2022-12-27T10:35:51.047Z,2.58
2022-12-27T10:38:19.817Z,2.66
2022-12-27T10:40:54.957Z,2.75
2022-12-27T10:43:27.631Z,2.67
2022-12-27T10:45:56.059Z,2.71
2022-12-27T10:48:36.374Z,2.68
2022-12-27T10:51:16.224Z,2.74
2022-12-27T10:53:58.729Z,2.62
2022-12-27T10:56:28.541Z,2.70
2022-12-27T10:59:05.938Z,2.75
2022-12-27T11:01:34.939Z,2.70
2022-12-27T11:04:23.323Z,2.64
2022-12-27T11:06:52.837Z,2.63
2022-12-27T11:09:30.175Z,2.60
2022-12-27T11:12:14.784Z,2.52
2022-12-27T11:14:55.367Z,2.51
2022-12-27T11:17:26.804Z,2.52
2022-12-27T11:19:58.514Z,2.48
2022-12-27T11:22:27.633Z,2.41
2022-12-27T11:24:59.691Z,2.44
2022-12-27T11:27:29.707Z,2.46
2022-12-27T11:29:59.969Z,2.49
2022-12-27T11:32:28.195Z,2.49
2022-12-27T11:34:58.217Z,2.49
2022-12-27T11:37:28.304Z,2.47
2022-12-27T11:40:11.359Z,2.45
2022-12-27T11:42:44.163Z,2.46
2022-12-27T11:45:16.141Z,2.48
2022-12-27T11:47:49.248Z,2.44
2022-12-27T11:50:38.842Z,2.42
2022-12-27T11:53:55.831Z,2.48
2022-12-27T11:56:27.943Z,2.49
2022-12-27T11:59:22.010Z,2.48
2022-12-27T12:02:14.670Z,2.44
2022-12-27T12:05:14.689Z,2.40
2022-12-27T12:07:59.273Z,2.41
2022-12-27T12:10:39.283Z,2.42
2022-12-27T12:13:42.213Z,2.42
2022-12-27T12:16:33.387Z,2.31
2022-12-27T12:19:11.990Z,2.28
2022-12-27T12:21:55.897Z,2.25
2022-12-27T12:25:01.613Z,2.18
2022-12-27T12:27:42.807Z,2.19
2022-12-27T12:30:52.511Z,2.21
2022-12-27T12:33:43.168Z,2.16
2022-12-27T12:36:26.781Z,2.18
2022-12-27T12:39:03.678Z,2.13
2022-12-27T12:41:53.972Z,2.14
2022-12-27T12:44:52.509Z,2.02
2022-12-27T12:47:45.328Z,2.03
2022-12-27T12:50:27.531Z,2.00
2022-12-27T12:53:11.133Z,1.95
2022-12-27T12:55:50.172Z,1.95
2022-12-27T12:58:38.852Z,1.91
2022-12-27T13:01:24.494Z,1.85
2022-12-27T13:04:05.561Z,1.75
2022-12-27T13:06:52.893Z,1.76
2022-12-27T13:09:35.055Z,1.70
2022-12-27T13:12:10.561Z,1.80
2022-12-27T13:15:00.086Z,1.83
2022-12-27T13:17:39.154Z,1.90
2022-12-27T13:20:27.268Z,1.89
2022-12-27T13:23:07.661Z,1.88
2022-12-27T13:25:45.765Z,1.87
2022-12-27T13:28:29.918Z,1.82
2022-12-27T13:31:07.470Z,1.88
2022-12-27T13:33:47.177Z,1.89
2022-12-27T13:36:25.532Z,1.87
2022-12-27T13:39:27.015Z,1.86
2022-12-27T13:42:23.440Z,1.86
2022-12-27T13:45:04.839Z,1.86
2022-12-27T13:47:59.492Z,1.93
2022-12-27T13:50:55.574Z,1.83
2022-12-27T13:53:41.061Z,1.89
2022-12-27T13:56:51.925Z,1.90
2022-12-27T13:59:32.129Z,1.88
2022-12-27T14:02:23.686Z,1.93
2022-12-27T14:05:17.215Z,1.90
2022-12-27T14:07:57.367Z,1.88
2022-12-27T14:10:36.369Z,1.82
2022-12-27T14:13:08.069Z,1.75
2022-12-27T14:15:59.972Z,1.71
2022-12-27T14:18:43.367Z,1.76
2022-12-27T14:21:29.653Z,1.73
2022-12-27T14:24:13.230Z,1.70
2022-12-27T14:27:30.597Z,1.69
2022-12-27T14:30:21.088Z,1.60
2022-12-27T14:33:23.661Z,1.53
2022-12-27T14:36:16.913Z,1.42
2022-12-27T14:39:22.151Z,1.35
2022-12-27T14:42:27.978Z,1.35
2022-12-27T14:45:36.580Z,1.28
2022-12-27T14:48:28.717Z,1.28
2022-12-27T14:52:00.092Z,1.25
2022-12-27T14:54:56.643Z,1.24
2022-12-27T14:57:35.570Z,1.17
2022-12-27T15:00:14.132Z,1.13
2022-12-27T15:03:13.483Z,0.98
2022-12-27T15:05:56.757Z,0.99
2022-12-27T15:08:44.004Z,1.00
2022-12-27T15:11:52.009Z,1.03
2022-12-27T15:14:54.073Z,0.97
2022-12-27T15:17:34.810Z,0.93
2022-12-27T15:20:26.418Z,0.92
2022-12-27T15:23:08.134Z,0.95
2022-12-27T15:25:52.141Z,0.96
2022-12-27T15:28:27.236Z,0.65
2022-12-27T15:31:04.036Z,0.89
2022-12-27T15:33:39.791Z,0.87
2022-12-27T15:36:14.574Z,0.84
2022-12-27T15:38:52.993Z,0.83
2022-12-27T15:41:55.415Z,0.76
2022-12-27T15:44:47.472Z,0.65
2022-12-27T15:47:46.703Z,0.65
2022-12-27T15:50:34.725Z,0.72
2022-12-27T15:53:19.268Z,0.74
2022-12-27T15:56:12.073Z,0.75
2022-12-27T15:58:42.124Z,0.76
2022-12-27T16:01:29.582Z,0.50
2022-12-27T16:03:59.697Z,0.79
2022-12-27T16:06:51.316Z,0.67
2022-12-27T16:09:35.622Z,0.73
2022-12-27T16:12:09.468Z,0.68
2022-12-27T16:14:41.045Z,0.64
2022-12-27T16:17:32.067Z,0.61
2022-12-27T16:20:13.315Z,0.60
2022-12-27T16:22:44.693Z,0.55
2022-12-27T16:25:31.265Z,0.55
2022-12-27T16:28:04.018Z,0.58
2022-12-27T16:30:39.967Z,0.57
2022-12-27T16:33:21.587Z,0.54
2022-12-27T16:36:04.805Z,0.59
2022-12-27T16:38:35.654Z,0.63
2022-12-27T16:41:15.271Z,0.67
2022-12-27T16:44:07.029Z,0.65
2022-12-27T16:47:03.478Z,0.56
2022-12-27T16:49:57.165Z,0.49
2022-12-27T16:52:58.504Z,0.49
2022-12-27T16:56:07.879Z,0.50
2022-12-27T16:58:37.451Z,0.56
2022-12-27T17:01:07.063Z,0.53
2022-12-27T17:03:48.174Z,0.46
2022-12-27T17:06:53.279Z,0.43
2022-12-27T17:09:44.727Z,0.36
2022-12-27T17:12:27.641Z,0.40
2022-12-27T17:15:03.842Z,0.40
2022-12-27T17:17:32.726Z,0.36
2022-12-27T17:20:06.139Z,0.35
2022-12-27T17:22:35.899Z,0.23
2022-12-27T17:25:05.192Z,0.33
2022-12-27T17:27:53.771Z,0.35
2022-12-27T17:30:23.433Z,0.33
2022-12-27T17:33:11.115Z,0.31
2022-12-27T17:35:52.979Z,0.23
2022-12-27T17:38:32.351Z,0.25
2022-12-27T17:41:15.491Z,0.25
2022-12-27T17:44:15.406Z,0.31
2022-12-27T17:46:55.855Z,0.30
2022-12-27T17:49:28.082Z,0.30
2022-12-27T17:52:15.576Z,0.34
2022-12-27T17:55:00.876Z,0.35
2022-12-27T17:58:00.455Z,0.17
2022-12-27T18:00:31.320Z,0.31
2022-12-27T18:03:01.451Z,0.26
2022-12-27T18:05:31.990Z,0.25
2022-12-27T18:08:04.332Z,0.25
2022-12-27T18:10:34.437Z,0.20
2022-12-27T18:13:05.762Z,0.25
2022-12-27T18:15:36.759Z,0.10
2022-12-27T18:18:07.148Z,0.25
2022-12-27T18:20:38.335Z,0.25
2022-12-27T18:23:16.652Z,0.22
2022-12-27T18:25:53.108Z,0.19
2022-12-27T18:28:28.700Z,0.09
2022-12-27T18:31:04.294Z,-0.06
2022-12-27T18:33:35.486Z,0.00
2022-12-27T18:36:06.335Z,0.05
2022-12-27T18:38:39.582Z,0.04
2022-12-27T18:41:11.137Z,0.03
2022-12-27T18:43:44.641Z,0.06
2022-12-27T18:46:16.359Z,0.09
2022-12-27T18:48:44.562Z,0.12
2022-12-27T18:51:12.499Z,0.08
2022-12-27T18:53:44.005Z,0.15
2022-12-27T18:56:26.841Z,0.14
2022-12-27T18:59:05.763Z,-0.05
2022-12-27T19:01:42.136Z,0.07
2022-12-27T19:04:22.418Z,0.12
2022-12-27T19:06:56.334Z,0.15
2022-12-27T19:09:29.389Z,0.11
2022-12-27T19:12:00.195Z,0.11
2022-12-27T19:14:37.459Z,0.01
2022-12-27T19:17:11.000Z,0.01
2022-12-27T19:19:39.703Z,0.04
2022-12-27T19:22:36.409Z,0.02
2022-12-27T19:25:19.601Z,-0.01
2022-12-27T19:27:58.261Z,0.02
2022-12-27T19:30:34.938Z,-0.12
2022-12-27T19:33:06.516Z,-0.17
2022-12-27T19:35:34.659Z,-0.24
2022-12-27T19:38:03.067Z,-0.31
2022-12-27T19:40:32.363Z,-0.28
2022-12-27T19:43:00.133Z,-0.33
2022-12-27T19:45:29.969Z,-0.26
2022-12-27T19:47:57.867Z,-0.25
2022-12-27T19:50:25.762Z,-0.19
2022-12-27T19:52:53.676Z,-0.24
2022-12-27T19:55:25.621Z,-0.16
2022-12-27T19:57:54.995Z,-0.17
2022-12-27T20:00:24.321Z,-0.19
2022-12-27T20:02:53.029Z,-0.23
2022-12-27T20:06:11.812Z,-0.21
2022-12-27T20:08:20.426Z,-0.22
2022-12-27T20:10:48.175Z,-0.25
2022-12-27T20:13:17.271Z,-0.36
2022-12-27T20:15:45.296Z,-0.39
2022-12-27T20:18:13.165Z,-0.44
2022-12-27T20:20:41.413Z,-0.36
2022-12-27T20:23:09.292Z,-0.29
2022-12-27T20:25:39.253Z,-0.26
2022-12-27T20:28:07.257Z,-0.18
2022-12-27T20:30:38.895Z,-0.17
2022-12-27T20:33:06.766Z,-0.22
2022-12-27T20:35:35.169Z,-0.23
2022-12-27T20:38:03.327Z,-0.18
2022-12-27T20:40:31.180Z,-0.25
2022-12-27T20:42:59.232Z,-0.37
2022-12-27T20:45:27.080Z,-0.43
2022-12-27T20:47:56.227Z,-0.42
2022-12-27T20:50:25.188Z,-0.40
2022-12-27T20:52:53.004Z,-0.49
2022-12-27T20:55:20.797Z,-0.43
2022-12-27T20:57:48.961Z,-0.44
2022-12-27T21:00:17.693Z,-0.47
2022-12-27T21:02:46.101Z,-0.48
2022-12-27T21:05:16.387Z,-0.37
2022-12-27T21:07:45.490Z,-0.38
2022-12-27T21:10:13.338Z,-0.38
2022-12-27T21:12:41.192Z,-0.43
2022-12-27T21:15:10.891Z,-0.41
2022-12-27T21:17:38.825Z,-0.38
2022-12-27T21:20:10.983Z,-0.37
2022-12-27T21:22:40.147Z,-0.44
2022-12-27T21:25:08.476Z,-0.47
2022-12-27T21:27:36.290Z,-0.64
2022-12-27T21:30:04.439Z,-0.49
2022-12-27T21:32:32.200Z,-0.63
2022-12-27T21:35:00.095Z,-0.62
2022-12-27T21:37:28.381Z,-0.58
2022-12-27T21:39:57.547Z,-0.61
2022-12-27T21:42:25.357Z,-0.65
2022-12-27T21:44:53.144Z,-0.69
2022-12-27T21:47:20.936Z,-0.77
2022-12-27T21:49:48.723Z,-0.80
2022-12-27T21:52:16.562Z,-0.73
2022-12-27T21:54:44.265Z,-0.72
2022-12-27T21:57:13.469Z,-0.75
2022-12-27T21:59:41.197Z,-0.68
2022-12-27T22:02:09.929Z,-0.69
2022-12-27T22:04:37.813Z,-0.68
2022-12-27T22:07:05.531Z,-0.71
2022-12-27T22:09:33.369Z,-0.74
2022-12-27T22:12:01.480Z,-0.77
2022-12-27T22:14:36.588Z,-0.81
2022-12-27T22:17:04.984Z,-0.80
2022-12-27T22:19:32.758Z,-0.75
2022-12-27T22:22:00.548Z,-0.79
2022-12-27T22:24:28.401Z,-0.81
2022-12-27T22:26:56.213Z,-0.81
2022-12-27T22:29:24.768Z,-0.84
2022-12-27T22:31:53.964Z,-0.90
2022-12-27T22:34:21.773Z,-1.00
2022-12-27T22:36:51.808Z,-1.12
2022-12-27T22:39:19.818Z,-1.18
2022-12-27T22:41:47.657Z,-1.25
2022-12-27T22:44:16.314Z,-1.14
2022-12-27T22:47:15.756Z,-1.16
2022-12-27T22:49:33.601Z,-1.09
2022-12-27T22:52:01.523Z,-1.01
2022-12-27T22:55:05.402Z,-1.00
2022-12-27T22:57:18.131Z,-1.05
2022-12-27T22:59:46.355Z,-1.05
2022-12-27T23:02:14.293Z,-1.00
2022-12-27T23:04:43.559Z,-1.06
2022-12-27T23:07:11.357Z,-1.05
2022-12-27T23:09:43.150Z,-1.02
2022-12-27T23:12:11.405Z,-1.04
2022-12-27T23:14:39.457Z,-1.11
2022-12-27T23:17:07.369Z,-1.19
2022-12-27T23:19:35.283Z,-1.26
2022-12-27T23:22:04.466Z,-1.29
2022-12-27T23:24:32.285Z,-1.42
2022-12-27T23:27:01.569Z,-1.62
2022-12-27T23:29:32.664Z,-1.32
2022-12-27T23:32:00.552Z,-1.34
2022-12-27T23:34:29.282Z,-1.47
2022-12-27T23:36:57.493Z,-1.27
2022-12-27T23:39:26.807Z,-1.31
2022-12-27T23:41:54.724Z,-1.33
2022-12-27T23:44:34.016Z,-1.38
2022-12-27T23:47:03.856Z,-1.54
2022-12-27T23:49:31.793Z,-1.58
2022-12-27T23:51:59.825Z,-1.58
2022-12-27T23:54:29.003Z,-1.60
2022-12-27T23:56:56.888Z,-1.56
2022-12-27T23:59:24.834Z,-1.61
